createdAt,value
2023-04-30T00:00:56.672Z,12.87
2023-04-30T00:03:24.664Z,12.80
2023-04-30T00:05:52.047Z,12.77
2023-04-30T00:08:20.099Z,12.81
2023-04-30T00:10:46.714Z,12.77
2023-04-30T00:13:14.337Z,12.70
2023-04-30T00:15:41.643Z,12.67
2023-04-30T00:18:08.401Z,12.60
2023-04-30T00:20:35.765Z,12.57
2023-04-30T00:23:02.431Z,12.53
2023-04-30T00:25:30.456Z,12.42
2023-04-30T00:27:57.362Z,12.37
2023-04-30T00:30:24.064Z,12.33
2023-04-30T00:32:50.801Z,12.27
2023-04-30T00:35:17.522Z,12.25
2023-04-30T00:37:44.162Z,12.24
2023-04-30T00:40:11.353Z,12.25
2023-04-30T00:42:39.396Z,12.21
2023-04-30T00:45:06.780Z,12.20
2023-04-30T00:47:33.466Z,12.14
2023-04-30T00:50:00.333Z,12.05
2023-04-30T00:52:27.146Z,12.08
2023-04-30T00:54:54.424Z,12.06
2023-04-30T00:57:21.934Z,11.96
2023-04-30T00:59:50.147Z,11.97
2023-04-30T01:02:17.396Z,11.89
2023-04-30T01:04:44.267Z,11.76
2023-04-30T01:07:11.086Z,11.70
2023-04-30T01:09:37.742Z,11.70
2023-04-30T01:12:10.604Z,11.64
2023-04-30T01:14:44.644Z,11.59
2023-04-30T01:17:16.448Z,11.54
2023-04-30T01:19:44.296Z,11.51
2023-04-30T01:22:14.813Z,11.47
2023-04-30T01:24:54.374Z,11.40
2023-04-30T01:27:30.325Z,11.35
2023-04-30T01:29:59.588Z,11.27
2023-04-30T01:32:26.854Z,11.19
2023-04-30T01:34:53.553Z,11.19
2023-04-30T01:37:23.850Z,11.17
2023-04-30T01:39:58.544Z,11.13
2023-04-30T01:42:29.221Z,11.09
2023-04-30T01:45:08.187Z,11.06
2023-04-30T01:47:39.232Z,11.00
2023-04-30T01:50:11.369Z,10.93
2023-04-30T01:52:40.828Z,10.93
2023-04-30T01:55:09.804Z,10.92
2023-04-30T01:57:38.434Z,10.90
2023-04-30T02:00:15.082Z,10.90
2023-04-30T02:02:41.913Z,10.89
2023-04-30T02:05:08.911Z,10.89
2023-04-30T02:07:38.850Z,10.89
2023-04-30T02:10:06.191Z,10.86
2023-04-30T02:12:33.011Z,10.85
2023-04-30T02:15:05.252Z,10.81
2023-04-30T02:17:33.388Z,10.74
2023-04-30T02:20:00.332Z,10.71
2023-04-30T02:22:27.315Z,10.72
2023-04-30T02:24:55.797Z,10.65
2023-04-30T02:27:24.022Z,10.64
2023-04-30T02:29:50.804Z,10.62
2023-04-30T02:32:17.771Z,10.58
2023-04-30T02:34:46.130Z,10.59
2023-04-30T02:37:23.164Z,10.51
2023-04-30T02:39:51.559Z,10.48
2023-04-30T02:46:01.024Z,10.42
2023-04-30T02:48:27.748Z,10.44
2023-04-30T02:50:55.830Z,10.41
2023-04-30T02:53:22.612Z,10.41
2023-04-30T02:55:49.325Z,10.41
2023-04-30T02:58:16.014Z,10.33
2023-04-30T03:00:42.610Z,10.42
2023-04-30T03:03:09.601Z,10.39
2023-04-30T03:05:36.399Z,10.40
2023-04-30T03:08:04.526Z,10.35
2023-04-30T03:10:31.169Z,10.32
2023-04-30T03:12:57.929Z,10.35
2023-04-30T03:15:24.633Z,10.32
2023-04-30T03:17:51.864Z,10.27
2023-04-30T03:20:18.660Z,10.18
2023-04-30T03:22:46.350Z,10.08
2023-04-30T03:25:14.713Z,10.08
2023-04-30T03:27:41.389Z,10.07
2023-04-30T03:30:08.633Z,10.05
2023-04-30T03:32:35.565Z,10.03
2023-04-30T03:35:02.377Z,10.02
2023-04-30T03:37:29.416Z,10.08
2023-04-30T03:39:56.611Z,10.06
2023-04-30T03:42:24.991Z,10.04
2023-04-30T03:44:52.061Z,10.02
2023-04-30T03:47:18.921Z,9.99
2023-04-30T03:49:45.934Z,9.97
2023-04-30T03:52:12.766Z,9.98
2023-04-30T03:54:39.569Z,9.93
2023-04-30T03:57:08.033Z,9.93
2023-04-30T03:59:36.239Z,9.92
2023-04-30T04:02:03.032Z,9.93
2023-04-30T04:04:30.253Z,9.88
2023-04-30T04:06:57.049Z,9.91
2023-04-30T04:09:23.745Z,9.92
2023-04-30T04:11:50.531Z,9.96
2023-04-30T04:14:17.174Z,9.96
2023-04-30T04:16:45.782Z,9.95
2023-04-30T04:19:13.432Z,9.90
2023-04-30T04:21:40.380Z,9.86
2023-04-30T04:24:13.502Z,9.80
2023-04-30T04:26:40.530Z,9.82
2023-04-30T04:29:12.211Z,9.87
2023-04-30T04:31:41.783Z,9.95
2023-04-30T04:34:09.921Z,10.08
2023-04-30T04:36:36.982Z,10.17
2023-04-30T04:39:03.950Z,10.31
2023-04-30T04:41:30.853Z,10.39
2023-04-30T04:43:57.542Z,10.69
2023-04-30T04:46:24.776Z,11.24
2023-04-30T04:48:52.008Z,11.98
2023-04-30T04:51:20.155Z,12.73
2023-04-30T04:53:47.001Z,12.87
2023-04-30T04:56:14.064Z,12.75
2023-04-30T04:58:41.502Z,12.97
2023-04-30T05:01:09.319Z,13.38
2023-04-30T05:03:38.954Z,13.71
2023-04-30T05:06:06.127Z,14.11
2023-04-30T05:08:34.217Z,13.99
2023-04-30T05:11:01.002Z,13.89
2023-04-30T05:13:27.699Z,13.80
2023-04-30T05:15:54.618Z,13.92
2023-04-30T05:18:21.315Z,14.16
2023-04-30T05:20:48.021Z,14.61
2023-04-30T05:23:14.633Z,14.50
2023-04-30T05:25:42.699Z,14.37
2023-04-30T05:28:09.405Z,14.69
2023-04-30T05:30:36.056Z,14.79
2023-04-30T05:33:02.712Z,14.87
2023-04-30T05:35:30.497Z,15.15
2023-04-30T05:37:57.384Z,15.34
2023-04-30T05:40:24.039Z,15.26
2023-04-30T05:42:52.114Z,15.58
2023-04-30T05:45:19.011Z,16.30
2023-04-30T05:47:45.763Z,16.56
2023-04-30T05:50:12.570Z,16.64
2023-04-30T05:52:39.363Z,16.59
2023-04-30T05:55:06.580Z,16.77
2023-04-30T05:57:33.403Z,16.82
2023-04-30T06:00:01.563Z,17.22
2023-04-30T06:02:28.357Z,17.71
2023-04-30T06:04:55.955Z,18.20
2023-04-30T06:07:22.608Z,18.45
2023-04-30T06:09:49.311Z,17.74
2023-04-30T06:12:15.984Z,17.73
2023-04-30T06:14:45.421Z,17.24
2023-04-30T06:17:14.087Z,16.81
2023-04-30T06:19:40.756Z,16.75
2023-04-30T06:22:07.470Z,16.51
2023-04-30T06:24:34.135Z,16.38
2023-04-30T06:27:01.272Z,16.77
2023-04-30T06:29:27.973Z,17.30
2023-04-30T06:31:54.682Z,18.07
2023-04-30T06:34:23.006Z,18.95
2023-04-30T06:36:49.670Z,18.76
2023-04-30T06:39:16.714Z,18.15
2023-04-30T06:41:43.492Z,18.00
2023-04-30T06:44:10.392Z,18.19
2023-04-30T06:46:37.196Z,18.61
2023-04-30T06:49:04.030Z,18.50
2023-04-30T06:51:32.153Z,18.63
2023-04-30T06:53:58.859Z,17.95
2023-04-30T06:56:25.886Z,17.56
2023-04-30T06:58:52.647Z,17.14
2023-04-30T07:01:19.631Z,16.97
2023-04-30T07:03:46.512Z,16.79
2023-04-30T07:06:13.250Z,16.54
2023-04-30T07:08:41.598Z,16.64
2023-04-30T07:11:08.234Z,16.66
2023-04-30T07:13:34.987Z,17.00
2023-04-30T07:16:01.870Z,16.90
2023-04-30T07:18:28.596Z,16.74
2023-04-30T07:20:55.303Z,16.73
2023-04-30T07:23:22.183Z,16.85
2023-04-30T07:25:50.512Z,16.36
2023-04-30T07:28:17.388Z,16.42
2023-04-30T07:30:44.158Z,16.37
2023-04-30T07:33:10.920Z,16.96
2023-04-30T07:35:37.839Z,17.09
2023-04-30T07:38:05.944Z,17.21
2023-04-30T07:40:36.284Z,17.69
2023-04-30T07:43:05.223Z,18.40
2023-04-30T07:45:34.048Z,18.56
2023-04-30T07:48:01.504Z,18.67
2023-04-30T07:50:29.818Z,18.42
2023-04-30T07:52:56.621Z,18.53
2023-04-30T07:55:23.222Z,18.06
2023-04-30T07:57:49.921Z,17.80
2023-04-30T08:00:18.053Z,18.09
2023-04-30T08:02:46.098Z,18.24
2023-04-30T08:05:12.990Z,18.13
2023-04-30T08:07:39.769Z,18.53
2023-04-30T08:10:06.911Z,18.74
2023-04-30T08:12:35.934Z,18.81
2023-04-30T08:15:05.121Z,18.70
2023-04-30T08:17:33.422Z,18.64
2023-04-30T08:20:00.298Z,18.63
2023-04-30T08:22:26.995Z,18.57
2023-04-30T08:24:55.073Z,18.53
2023-04-30T08:27:22.047Z,18.38
2023-04-30T08:29:48.768Z,18.58
2023-04-30T08:32:15.868Z,19.02
2023-04-30T08:34:43.942Z,19.19
2023-04-30T08:37:10.848Z,19.24
2023-04-30T08:39:37.523Z,19.26
2023-04-30T08:42:08.442Z,19.13
2023-04-30T08:44:39.767Z,18.49
2023-04-30T08:47:07.066Z,19.26
2023-04-30T08:49:33.774Z,19.23
2023-04-30T08:52:01.993Z,19.11
2023-04-30T08:54:30.744Z,19.10
2023-04-30T08:56:57.393Z,18.90
2023-04-30T08:59:24.169Z,18.99
2023-04-30T09:01:53.643Z,19.41
2023-04-30T09:04:20.963Z,19.49
2023-04-30T09:06:47.791Z,19.61
2023-04-30T09:09:16.304Z,19.73
2023-04-30T09:11:43.146Z,20.05
2023-04-30T09:14:09.920Z,20.17
2023-04-30T09:16:46.813Z,19.95
2023-04-30T09:19:25.908Z,19.67
2023-04-30T09:21:52.613Z,19.41
2023-04-30T09:24:20.788Z,19.24
2023-04-30T09:26:47.611Z,19.66
2023-04-30T09:29:14.406Z,19.74
2023-04-30T09:31:42.467Z,19.67
2023-04-30T09:34:09.200Z,19.65
2023-04-30T09:36:35.872Z,19.93
2023-04-30T09:39:08.887Z,19.93
2023-04-30T09:41:38.076Z,20.09
2023-04-30T09:44:05.033Z,19.89
2023-04-30T09:46:32.427Z,19.74
2023-04-30T09:48:59.623Z,19.39
2023-04-30T09:51:27.146Z,19.71
2023-04-30T09:53:54.526Z,19.55
2023-04-30T09:56:23.199Z,19.54
2023-04-30T09:58:54.996Z,19.82
2023-04-30T10:01:22.279Z,19.94
2023-04-30T10:03:49.313Z,20.25
2023-04-30T10:06:18.559Z,20.84
2023-04-30T10:08:47.478Z,20.49
2023-04-30T10:11:17.345Z,20.68
2023-04-30T10:13:47.116Z,20.54
2023-04-30T10:16:21.919Z,20.48
2023-04-30T10:18:51.448Z,20.42
2023-04-30T10:21:18.518Z,20.99
2023-04-30T10:23:46.287Z,20.61
2023-04-30T10:26:14.219Z,20.39
2023-04-30T10:28:41.017Z,20.40
2023-04-30T10:31:10.835Z,20.33
2023-04-30T10:33:47.069Z,20.60
2023-04-30T10:36:14.897Z,20.74
2023-04-30T10:38:41.632Z,20.67
2023-04-30T10:41:09.691Z,21.12
2023-04-30T10:43:36.940Z,21.15
2023-04-30T10:46:04.692Z,21.12
2023-04-30T10:48:33.564Z,21.16
2023-04-30T10:51:01.650Z,21.34
2023-04-30T10:53:31.348Z,21.41
2023-04-30T10:55:59.768Z,21.68
2023-04-30T10:58:28.502Z,21.57
2023-04-30T11:01:02.421Z,21.37
2023-04-30T11:03:30.133Z,21.20
2023-04-30T11:06:07.976Z,21.01
2023-04-30T11:08:35.985Z,20.68
2023-04-30T11:11:05.036Z,20.67
2023-04-30T11:13:44.900Z,20.52
2023-04-30T11:16:12.012Z,21.03
2023-04-30T11:18:43.001Z,21.26
2023-04-30T11:21:11.926Z,21.14
2023-04-30T11:23:42.374Z,20.98
2023-04-30T11:26:09.678Z,21.25
2023-04-30T11:28:37.729Z,21.73
2023-04-30T11:31:04.858Z,21.94
2023-04-30T11:33:32.970Z,22.00
2023-04-30T11:36:00.237Z,21.94
2023-04-30T11:38:29.048Z,21.68
2023-04-30T11:41:00.512Z,21.78
2023-04-30T11:43:27.884Z,21.62
2023-04-30T11:46:01.784Z,20.86
2023-04-30T11:48:31.891Z,20.43
2023-04-30T11:50:58.594Z,20.38
2023-04-30T11:53:29.627Z,20.53
2023-04-30T11:55:56.505Z,20.62
2023-04-30T11:58:23.233Z,20.59
2023-04-30T12:00:52.140Z,20.81
2023-04-30T12:03:19.548Z,20.79
2023-04-30T12:05:46.539Z,20.59
2023-04-30T12:08:13.335Z,20.67
2023-04-30T12:10:41.454Z,20.50
2023-04-30T12:13:08.240Z,20.62
2023-04-30T12:15:35.074Z,21.25
2023-04-30T12:18:11.327Z,21.38
2023-04-30T12:20:38.371Z,21.53
2023-04-30T12:23:07.930Z,21.45
2023-04-30T12:25:44.194Z,21.25
2023-04-30T12:28:12.059Z,21.15
2023-04-30T12:30:39.062Z,21.68
2023-04-30T12:33:06.356Z,21.94
2023-04-30T12:35:33.225Z,22.28
2023-04-30T12:38:04.662Z,22.00
2023-04-30T12:40:31.854Z,21.79
2023-04-30T12:43:03.807Z,21.54
2023-04-30T12:45:47.080Z,21.59
2023-04-30T12:48:14.624Z,21.11
2023-04-30T12:50:41.278Z,21.31
2023-04-30T12:53:08.067Z,21.67
2023-04-30T12:55:35.319Z,21.91
2023-04-30T12:58:07.305Z,21.91
2023-04-30T13:00:47.140Z,21.89
2023-04-30T13:03:14.067Z,21.76
2023-04-30T13:05:41.849Z,21.38
2023-04-30T13:08:09.621Z,21.16
2023-04-30T13:10:36.259Z,21.39
2023-04-30T13:13:02.965Z,21.32
2023-04-30T13:15:31.097Z,21.16
2023-04-30T13:17:58.044Z,21.44
2023-04-30T13:20:27.899Z,21.65
2023-04-30T13:22:54.693Z,21.14
2023-04-30T13:25:22.368Z,21.31
2023-04-30T13:27:49.083Z,21.52
2023-04-30T13:30:15.838Z,21.37
2023-04-30T13:32:44.910Z,21.50
2023-04-30T13:35:11.826Z,21.56
2023-04-30T13:37:38.815Z,21.13
2023-04-30T13:40:06.825Z,20.90
2023-04-30T13:42:33.852Z,21.00
2023-04-30T13:45:00.536Z,20.94
2023-04-30T13:47:27.363Z,20.61
2023-04-30T13:49:55.754Z,20.37
2023-04-30T13:52:24.677Z,20.63
2023-04-30T13:54:51.895Z,20.53
2023-04-30T13:57:18.631Z,20.51
2023-04-30T13:59:45.416Z,20.67
2023-04-30T14:02:12.169Z,20.55
2023-04-30T14:04:39.017Z,20.26
2023-04-30T14:07:07.241Z,20.23
2023-04-30T14:09:33.894Z,20.02
2023-04-30T14:12:00.651Z,20.09
2023-04-30T14:14:27.321Z,20.32
2023-04-30T14:16:54.297Z,20.34
2023-04-30T14:19:24.247Z,20.08
2023-04-30T14:21:51.037Z,19.95
2023-04-30T14:24:20.095Z,19.92
2023-04-30T14:26:46.891Z,19.95
2023-04-30T14:29:13.720Z,20.02
2023-04-30T14:31:40.828Z,20.24
2023-04-30T14:34:07.542Z,20.41
2023-04-30T14:36:34.335Z,20.62
2023-04-30T14:39:01.039Z,20.67
2023-04-30T14:41:29.473Z,20.53
2023-04-30T14:43:56.411Z,20.18
2023-04-30T14:46:23.249Z,20.12
2023-04-30T14:48:49.958Z,20.27
2023-04-30T14:51:16.665Z,20.62
2023-04-30T14:53:43.403Z,20.55
2023-04-30T14:56:10.400Z,20.46
2023-04-30T14:58:38.414Z,20.58
2023-04-30T15:01:05.575Z,20.63
2023-04-30T15:03:32.404Z,20.65
2023-04-30T15:05:59.244Z,20.84
2023-04-30T15:08:25.904Z,20.75
2023-04-30T15:10:52.594Z,20.67
2023-04-30T15:13:19.412Z,20.34
2023-04-30T15:15:48.074Z,20.05
2023-04-30T15:18:15.782Z,20.12
2023-04-30T15:20:42.554Z,20.44
2023-04-30T15:23:09.402Z,20.43
2023-04-30T15:25:36.250Z,20.42
2023-04-30T15:28:03.303Z,20.46
2023-04-30T15:30:30.056Z,20.57
2023-04-30T15:32:58.020Z,20.66
2023-04-30T15:35:26.583Z,20.80
2023-04-30T15:37:53.594Z,20.54
2023-04-30T15:40:20.629Z,20.52
2023-04-30T15:42:47.312Z,20.33
2023-04-30T15:45:14.130Z,20.24
2023-04-30T15:47:41.346Z,19.92
2023-04-30T15:50:09.792Z,20.03
2023-04-30T15:52:38.854Z,20.04
2023-04-30T15:55:08.175Z,19.91
2023-04-30T15:57:34.927Z,19.95
2023-04-30T16:00:01.561Z,19.83
2023-04-30T16:02:38.626Z,19.66
2023-04-30T16:05:05.701Z,19.65
2023-04-30T16:07:33.997Z,19.80
2023-04-30T16:10:00.964Z,19.71
2023-04-30T16:12:27.857Z,19.66
2023-04-30T16:14:54.529Z,19.58
2023-04-30T16:17:21.599Z,19.64
2023-04-30T16:19:48.450Z,19.62
2023-04-30T16:22:17.176Z,19.57
2023-04-30T16:24:45.313Z,19.58
2023-04-30T16:27:12.056Z,19.69
2023-04-30T16:29:38.773Z,19.75
2023-04-30T16:32:05.843Z,19.54
2023-04-30T16:34:32.576Z,19.10
2023-04-30T16:36:59.189Z,19.39
2023-04-30T16:39:25.975Z,19.63
2023-04-30T16:41:54.280Z,19.79
2023-04-30T16:44:21.776Z,19.76
2023-04-30T16:46:49.278Z,19.64
2023-04-30T16:49:16.604Z,19.53
2023-04-30T16:51:43.221Z,19.54
2023-04-30T16:54:10.558Z,19.36
2023-04-30T16:56:37.170Z,19.32
2023-04-30T16:59:05.629Z,19.33
2023-04-30T17:01:32.550Z,19.35
2023-04-30T17:03:59.401Z,19.22
2023-04-30T17:06:26.443Z,19.20
2023-04-30T17:08:54.445Z,19.12
2023-04-30T17:11:23.307Z,19.13
2023-04-30T17:13:50.102Z,18.99
2023-04-30T17:16:18.367Z,18.91
2023-04-30T17:18:45.315Z,18.85
2023-04-30T17:21:12.572Z,18.91
2023-04-30T17:23:40.571Z,18.86
2023-04-30T17:26:07.250Z,18.57
2023-04-30T17:28:34.082Z,18.60
2023-04-30T17:31:07.113Z,18.67
2023-04-30T17:33:35.811Z,18.12
2023-04-30T17:36:02.817Z,18.19
2023-04-30T17:38:29.658Z,18.24
2023-04-30T17:40:57.825Z,18.21
2023-04-30T17:43:24.657Z,18.25
2023-04-30T17:45:53.253Z,18.24
2023-04-30T17:48:20.512Z,18.20
2023-04-30T17:50:48.731Z,18.13
2023-04-30T17:53:15.561Z,18.03
2023-04-30T17:55:42.394Z,18.01
2023-04-30T17:58:11.621Z,17.94
2023-04-30T18:00:38.697Z,17.71
2023-04-30T18:03:06.749Z,17.66
2023-04-30T18:05:35.597Z,17.73
2023-04-30T18:08:04.419Z,17.66
2023-04-30T18:10:31.244Z,17.64
2023-04-30T18:12:58.169Z,17.64
2023-04-30T18:15:24.954Z,17.65
2023-04-30T18:17:51.882Z,17.59
2023-04-30T18:20:18.555Z,17.48
2023-04-30T18:22:45.537Z,17.45
2023-04-30T18:25:13.698Z,17.40
2023-04-30T18:27:41.027Z,17.32
2023-04-30T18:30:08.176Z,17.16
2023-04-30T18:32:35.422Z,17.18
2023-04-30T18:35:02.872Z,17.17
2023-04-30T18:37:30.151Z,17.10
2023-04-30T18:39:57.358Z,17.04
2023-04-30T18:42:25.886Z,16.96
2023-04-30T18:44:52.538Z,16.91
2023-04-30T18:47:19.730Z,16.84
2023-04-30T18:49:46.354Z,16.81
2023-04-30T18:52:13.183Z,16.77
2023-04-30T18:54:40.561Z,16.75
2023-04-30T18:57:09.446Z,16.68
2023-04-30T18:59:39.171Z,16.59
2023-04-30T19:02:06.469Z,16.57
2023-04-30T19:04:33.362Z,16.54
2023-04-30T19:07:00.109Z,16.50
2023-04-30T19:09:27.190Z,16.43
2023-04-30T19:11:54.039Z,16.37
2023-04-30T19:14:20.812Z,16.38
2023-04-30T19:16:50.116Z,16.35
2023-04-30T19:19:17.645Z,16.25
2023-04-30T19:21:44.309Z,16.13
2023-04-30T19:24:11.800Z,16.06
2023-04-30T19:26:38.546Z,15.97
2023-04-30T19:29:05.282Z,15.90
2023-04-30T19:31:33.610Z,15.90
2023-04-30T19:34:21.360Z,15.80
2023-04-30T19:39:54.634Z,15.77
2023-04-30T19:42:21.471Z,15.71
2023-04-30T19:44:51.220Z,15.70
2023-04-30T19:47:18.384Z,15.62
2023-04-30T19:49:47.460Z,15.63
2023-04-30T19:52:34.325Z,15.52
2023-04-30T19:55:01.147Z,15.47
2023-04-30T19:57:28.234Z,15.47
2023-04-30T19:59:55.593Z,15.44
2023-04-30T20:02:22.411Z,15.43
2023-04-30T20:04:50.589Z,15.43
2023-04-30T20:07:19.039Z,15.41
2023-04-30T20:09:46.018Z,15.39
2023-04-30T20:12:12.661Z,15.39
2023-04-30T20:14:40.283Z,15.39
2023-04-30T20:17:06.898Z,15.36
2023-04-30T20:19:33.788Z,15.27
2023-04-30T20:22:03.041Z,15.13
2023-04-30T20:24:30.462Z,15.04
2023-04-30T20:26:57.524Z,14.81
2023-04-30T20:29:24.566Z,14.65
2023-04-30T20:31:51.922Z,14.49
2023-04-30T20:34:18.607Z,14.26
2023-04-30T20:39:52.771Z,14.13
2023-04-30T20:42:19.846Z,13.73
2023-04-30T20:44:47.571Z,13.75
2023-04-30T20:47:14.676Z,13.69
2023-04-30T20:49:41.451Z,13.40
2023-04-30T20:52:09.664Z,13.29
2023-04-30T20:54:36.691Z,13.40
2023-04-30T20:57:03.483Z,13.36
2023-04-30T20:59:30.292Z,12.89
2023-04-30T21:01:58.289Z,12.97
2023-04-30T21:04:25.206Z,13.16
2023-04-30T21:06:51.844Z,13.15
2023-04-30T21:09:20.177Z,13.02
2023-04-30T21:11:46.951Z,12.86
2023-04-30T21:14:13.753Z,12.79
2023-04-30T21:16:40.973Z,12.25
2023-04-30T21:19:08.448Z,12.41
2023-04-30T21:21:35.088Z,12.46
2023-04-30T21:24:02.275Z,12.13
2023-04-30T21:26:30.640Z,12.35
2023-04-30T21:28:57.356Z,12.15
2023-04-30T21:31:24.739Z,11.81
2023-04-30T21:33:51.618Z,11.64
2023-04-30T21:36:18.430Z,11.60
2023-04-30T21:38:45.168Z,11.49
2023-04-30T21:41:15.417Z,11.43
2023-04-30T21:43:43.738Z,11.72
2023-04-30T21:46:11.173Z,11.81
2023-04-30T21:48:38.472Z,11.36
2023-04-30T21:51:11.327Z,11.33
2023-04-30T21:53:38.418Z,11.15
2023-04-30T21:56:08.591Z,11.42
2023-04-30T21:58:35.519Z,11.40
2023-04-30T22:01:04.633Z,11.59
2023-04-30T22:03:31.679Z,11.67
2023-04-30T22:05:58.935Z,11.72
2023-04-30T22:08:25.781Z,11.65
2023-04-30T22:10:55.866Z,11.37
2023-04-30T22:13:22.899Z,11.08
2023-04-30T22:15:50.609Z,11.10
2023-04-30T22:18:18.850Z,11.18
2023-04-30T22:20:45.799Z,11.19
2023-04-30T22:23:12.496Z,11.25
2023-04-30T22:25:39.128Z,11.19
2023-04-30T22:28:05.950Z,10.82
2023-04-30T22:30:32.682Z,10.42
2023-04-30T22:32:59.490Z,10.41
2023-04-30T22:35:27.831Z,10.47
2023-04-30T22:37:54.607Z,10.74
2023-04-30T22:40:21.842Z,10.84
2023-04-30T22:42:48.778Z,10.92
2023-04-30T22:45:15.598Z,10.97
2023-04-30T22:47:42.342Z,10.94
2023-04-30T22:50:09.844Z,10.69
2023-04-30T22:52:37.951Z,10.37
2023-04-30T22:55:06.726Z,10.34
2023-04-30T22:57:33.465Z,10.59
2023-04-30T23:00:00.143Z,10.49
2023-04-30T23:02:26.886Z,10.65
2023-04-30T23:04:53.831Z,10.84
2023-04-30T23:07:20.551Z,10.89
2023-04-30T23:09:49.322Z,10.78
2023-04-30T23:12:16.063Z,10.76
2023-04-30T23:14:42.729Z,10.57
2023-04-30T23:17:09.597Z,10.55
2023-04-30T23:19:36.568Z,10.57
2023-04-30T23:22:03.472Z,10.53
2023-04-30T23:24:35.202Z,10.49
2023-04-30T23:27:03.505Z,10.42
2023-04-30T23:29:30.179Z,10.41
2023-04-30T23:31:57.589Z,10.36
2023-04-30T23:34:24.388Z,10.32
2023-04-30T23:36:51.118Z,10.27
2023-04-30T23:39:18.200Z,10.21
2023-04-30T23:41:45.115Z,10.23
2023-04-30T23:44:13.537Z,10.06
2023-04-30T23:46:41.482Z,9.98
2023-04-30T23:49:10.065Z,10.08
2023-04-30T23:51:36.934Z,9.93
2023-04-30T23:54:04.481Z,9.95
2023-04-30T23:56:31.577Z,9.74
2023-04-30T23:58:58.272Z,9.86
